Hastings, Michigan
Current Conditions -  °F | °C
As of 11:53 AM on Friday 21 Nov 2014 (Local Time) from KGRR Reporting Station
Few Clouds Few Clouds  
Wind Chill: 13°   Ceiling: Unl
Heat Index: 22°   Visibility: 10mi
Dew Point: 13°   Wind: 7mph
Humidity: 68%   Direction: 170°S
Pressure: 30.45"   Gusts: NA
Location:  42.65°N, 85.29°W
Report Text: KGRR 211653Z 17006KT 10SM FEW220 M06/M11 A3045 RMK AO2 SLP325 T10561106
Loading
Personal Weather Stations






























Interactive Weather Map New forecast layout! Learn more

10-Day Weather Forecast

Advertisements
Track Severe Weather on mobile